Terminal Aerodrome Forecast
Issued by NWS Sterling, VA

Current Version | Previous Version | Graphics & Text | Print | Product List | Glossary On
Versions: 1 2 3 4 5 6 7 8 9 10 11 12 13 14 15 16 17 18 19 20 21 22 23 24 25 26 27 28
546
FTUS41 KLWX 231043 AAD
TAFDCA
TAF AMD
KDCA 231043Z 2311/2406 06005KT 1SM BR OVC003
     FM231500 15008KT 5SM BR BKN015
     FM231700 14010KT P6SM OVC030
     FM240000 15011G21KT P6SM -SHRA OVC035
     FM240100 15011G21KT P6SM -SHRA OVC025
     FM240300 16012G23KT 5SM SHRA OVC025
     FM240500 16012G26KT 5SM SHRA OVC015 WS020/16040KT=

USA.gov is the U.S. government's official web portal to all federal, state and local government web resources and services.